Time;durP1;ratioP1;P1;durP2;ratioP2;P2;SDS_P1;SDS_P2;PMS_P1;PMS_P2;Temp;Humidity;BMP_temperature;BMP_pressure;BME280_temperature;BME280_humidity;BME280_pressure;Samples;Min_cycle;Max_cycle;Signal;HPM_P1;HPM_P2
2022/03/23 00:01:44;;;;;;;192.77;91.53;;;;;;;0.35;70.34;96195.80;1671485;85;21508;-51
2022/03/23 00:04:12;;;;;;;194.45;88.07;;;;;;;0.38;70.11;96189.71;1667828;85;20977;-50
2022/03/23 00:06:39;;;;;;;230.52;104.03;;;;;;;0.38;69.98;96195.89;1660891;85;20969;-50
2022/03/23 00:09:08;;;;;;;268.12;107.03;;;;;;;0.33;69.92;96200.22;1659830;83;21024;-49
2022/03/23 00:11:37;;;;;;;272.90;116.57;;;;;;;0.24;70.01;96200.92;1660318;85;21021;-49
2022/03/23 00:14:06;;;;;;;257.80;108.35;;;;;;;0.15;70.16;96201.66;1664651;85;21623;-50
2022/03/23 00:16:37;;;;;;;269.60;107.83;;;;;;;0.11;70.42;96199.98;1662982;85;21700;-49
2022/03/23 00:19:10;;;;;;;221.37;98.58;;;;;;;0.06;70.40;96192.89;1649497;84;21122;-50
2022/03/23 00:21:36;;;;;;;205.27;91.75;;;;;;;0.05;70.64;96195.38;1660378;85;21063;-50
2022/03/23 00:24:04;;;;;;;174.72;79.17;;;;;;;0.06;70.72;96190.19;1651877;84;21338;-48
2022/03/23 00:26:34;;;;;;;154.40;70.10;;;;;;;0.08;70.68;96196.03;1655594;85;21449;-49
2022/03/23 00:29:03;;;;;;;118.42;57.15;;;;;;;0.06;70.33;96192.13;1672326;85;21111;-50
2022/03/23 00:31:31;;;;;;;145.15;67.15;;;;;;;0.08;70.35;96187.92;1663875;85;21013;-49
2022/03/23 00:33:58;;;;;;;173.97;77.55;;;;;;;0.13;70.22;96190.40;1661963;85;20957;-49
2022/03/23 00:36:26;;;;;;;171.18;75.85;;;;;;;0.19;70.27;96186.30;1664347;85;22227;-50
2022/03/23 00:38:55;;;;;;;163.20;73.15;;;;;;;0.20;70.10;96184.39;1667653;84;21005;-50
2022/03/23 00:41:22;;;;;;;154.80;70.42;;;;;;;0.17;70.23;96187.22;1662208;85;20981;-50
2022/03/23 00:43:50;;;;;;;154.03;69.67;;;;;;;0.11;70.33;96186.45;1666385;85;21032;-51
2022/03/23 00:46:19;;;;;;;160.12;71.25;;;;;;;0.06;70.53;96186.71;1670330;85;21027;-50
2022/03/23 00:48:47;;;;;;;150.80;69.55;;;;;;;0.02;70.71;96180.42;1650248;85;21284;-51
2022/03/23 00:51:14;;;;;;;143.20;66.00;;;;;;;-0.01;70.66;96177.83;1669961;86;20981;-50
2022/03/23 00:53:44;;;;;;;128.90;59.30;;;;;;;-0.02;70.74;96176.26;1672436;85;20988;-63
2022/03/23 00:56:12;;;;;;;115.30;57.33;;;;;;;-0.01;70.72;96172.42;1669345;85;21016;-49
2022/03/23 00:58:40;;;;;;;144.02;66.67;;;;;;;0.02;70.40;96175.02;1662497;85;20986;-53
2022/03/23 01:01:08;;;;;;;116.15;57.73;;;;;;;0.05;70.48;96172.38;1655970;85;21068;-52
2022/03/23 01:03:38;;;;;;;125.97;58.05;;;;;;;0.14;70.20;96169.53;1659480;85;21365;-49
2022/03/23 01:06:08;;;;;;;112.68;53.80;;;;;;;0.17;70.02;96171.53;1657381;84;21537;-50
2022/03/23 01:08:35;;;;;;;109.92;51.73;;;;;;;0.15;69.98;96166.48;1649611;85;21009;-51
2022/03/23 01:11:05;;;;;;;139.88;62.98;;;;;;;0.08;69.86;96160.87;1642571;84;21557;-49
2022/03/23 01:13:35;;;;;;;130.78;63.58;;;;;;;-0.03;69.90;96163.66;1652100;84;21174;-50
2022/03/23 01:16:05;;;;;;;137.12;62.40;;;;;;;-0.14;70.11;96164.71;1659046;85;21028;-52
2022/03/23 01:18:33;;;;;;;139.60;64.10;;;;;;;-0.24;70.26;96168.47;1654970;85;21029;-52
2022/03/23 01:21:01;;;;;;;139.05;63.20;;;;;;;-0.30;70.61;96167.13;1650792;83;20986;-50
2022/03/23 01:23:30;;;;;;;136.20;62.93;;;;;;;-0.34;70.69;96163.54;1657926;85;21131;-49
2022/03/23 01:25:57;;;;;;;131.70;63.30;;;;;;;-0.41;70.87;96162.77;1662898;85;21113;-50
2022/03/23 01:28:26;;;;;;;130.97;61.42;;;;;;;-0.44;71.12;96159.41;1662998;86;21075;-50
2022/03/23 01:30:54;;;;;;;125.65;58.08;;;;;;;-0.43;71.24;96162.91;1663067;84;21535;-52
2022/03/23 01:33:22;;;;;;;125.87;55.98;;;;;;;-0.43;71.35;96153.45;1657176;85;21012;-50
2022/03/23 01:35:50;;;;;;;137.60;62.20;;;;;;;-0.41;71.33;96163.34;1655904;84;20981;-50
2022/03/23 01:38:18;;;;;;;136.62;62.10;;;;;;;-0.43;71.22;96161.55;1663388;83;22463;-51
2022/03/23 01:40:47;;;;;;;156.02;72.55;;;;;;;-0.49;71.30;96158.85;1665291;85;21061;-52
2022/03/23 01:43:16;;;;;;;97.53;49.88;;;;;;;-0.54;71.28;96158.55;1665467;84;21024;-50
2022/03/23 01:45:44;;;;;;;126.65;54.23;;;;;;;-0.63;71.19;96154.41;1666703;85;21040;-49
2022/03/23 01:48:12;;;;;;;119.30;54.55;;;;;;;-0.76;71.33;96155.55;1658041;85;20974;-50
2022/03/23 01:50:40;;;;;;;121.35;56.42;;;;;;;-0.88;71.54;96151.52;1638401;84;22362;-50
2022/03/23 01:53:08;;;;;;;130.00;59.40;;;;;;;-0.96;71.78;96149.73;1665121;85;21007;-49
2022/03/23 01:55:35;;;;;;;121.28;53.50;;;;;;;-1.03;71.95;96149.50;1653144;84;21561;-50
2022/03/23 01:58:04;;;;;;;115.95;55.90;;;;;;;-1.11;72.13;96153.13;1651018;85;21009;-48
2022/03/23 02:00:35;;;;;;;105.30;52.15;;;;;;;-1.17;72.39;96151.20;1664944;85;21108;-50
2022/03/23 02:03:03;;;;;;;114.88;57.55;;;;;;;-1.21;72.61;96158.97;1661869;84;21152;-50
2022/03/23 02:05:33;;;;;;;118.37;58.68;;;;;;;-1.22;72.82;96156.04;1655910;85;20984;-49
2022/03/23 02:08:05;;;;;;;147.93;67.92;;;;;;;-1.21;73.14;96154.91;1664661;85;21018;-49
2022/03/23 02:10:32;;;;;;;148.57;65.15;;;;;;;-1.15;73.21;96154.93;1662953;85;20993;-50
2022/03/23 02:13:11;;;;;;;156.00;66.28;;;;;;;-1.09;73.40;96148.17;1658579;85;21717;-49
2022/03/23 02:15:39;;;;;;;146.40;70.37;;;;;;;-0.95;73.27;96151.31;1652603;85;21215;-50
2022/03/23 02:18:08;;;;;;;136.97;65.62;;;;;;;-0.88;72.96;96151.52;1649956;85;20957;-50
2022/03/23 02:20:38;;;;;;;154.60;65.62;;;;;;;-0.84;72.57;96149.70;1660501;86;21083;-52
2022/03/23 02:23:08;;;;;;;150.90;64.40;;;;;;;-0.80;72.44;96156.02;1656536;85;21084;-49
2022/03/23 02:25:37;;;;;;;153.93;69.47;;;;;;;-0.83;72.19;96152.63;1661148;83;21064;-50
2022/03/23 02:28:05;;;;;;;158.70;71.12;;;;;;;-0.87;72.14;96150.38;1665029;85;21240;-50
2022/03/23 02:30:33;;;;;;;170.43;71.57;;;;;;;-0.90;72.23;96153.77;1660597;85;21015;-49
2022/03/23 02:33:01;;;;;;;153.32;69.60;;;;;;;-0.90;72.12;96155.12;1665289;85;21020;-50
2022/03/23 02:35:29;;;;;;;151.15;67.95;;;;;;;-0.90;72.24;96148.37;1645449;85;21415;-50
2022/03/23 02:37:56;;;;;;;142.80;65.75;;;;;;;-0.87;72.22;96143.63;1667981;86;21060;-49
2022/03/23 02:40:25;;;;;;;134.40;57.58;;;;;;;-0.82;71.99;96144.73;1667515;85;21361;-50
2022/03/23 02:42:52;;;;;;;117.03;55.50;;;;;;;-0.80;71.78;96153.32;1634088;85;21172;-50
2022/03/23 02:45:21;;;;;;;129.80;60.52;;;;;;;-0.79;71.64;96145.44;1651655;85;21086;-51
2022/03/23 02:47:48;;;;;;;118.72;54.77;;;;;;;-0.78;71.60;96151.06;1646541;83;21518;-53
2022/03/23 02:50:15;;;;;;;116.33;55.60;;;;;;;-0.74;71.57;96151.36;1665019;85;21012;-53
2022/03/23 03:01:52;;;;;;;95.65;48.40;;;;;;;-0.81;71.35;96153.09;1662389;85;21824;-49
2022/03/23 03:03:43;;;;;;;107.67;51.28;;;;;;;-1.10;71.87;96151.41;1665043;85;21024;-49
2022/03/23 03:06:10;;;;;;;112.40;52.53;;;;;;;-1.19;71.84;96148.61;1665467;85;21092;-51
2022/03/23 03:08:45;;;;;;;106.00;50.40;;;;;;;-1.22;72.07;96150.64;1663801;84;21072;-49
2022/03/23 03:11:12;;;;;;;137.15;59.15;;;;;;;-1.25;72.10;96152.13;1655906;83;21470;-50
2022/03/23 03:13:42;;;;;;;138.43;61.85;;;;;;;-1.23;72.03;96151.22;1657694;85;20946;-51
2022/03/23 03:16:10;;;;;;;143.07;62.20;;;;;;;-1.19;71.85;96145.91;1645801;85;21029;-50
2022/03/23 03:18:39;;;;;;;110.22;52.93;;;;;;;-1.18;71.60;96148.86;1658432;84;20972;-51
2022/03/23 03:21:08;;;;;;;136.03;59.10;;;;;;;-1.15;71.52;96139.50;1654174;85;21180;-49
2022/03/23 03:23:38;;;;;;;119.08;53.65;;;;;;;-1.17;71.45;96141.76;1653088;85;21000;-50
2022/03/23 03:26:06;;;;;;;127.38;57.53;;;;;;;-1.19;71.61;96145.91;1664812;84;21050;-50
2022/03/23 03:28:35;;;;;;;137.77;61.25;;;;;;;-1.23;71.72;96143.12;1653173;85;20988;-49
2022/03/23 03:31:08;;;;;;;137.35;59.60;;;;;;;-1.24;71.83;96145.59;1670359;84;21468;-50
2022/03/23 03:33:36;;;;;;;122.50;57.40;;;;;;;-1.24;71.85;96148.84;1642437;85;21017;-50
2022/03/23 03:36:05;;;;;;;141.25;56.92;;;;;;;-1.26;71.78;96145.70;1659118;85;21115;-50
2022/03/23 03:38:33;;;;;;;139.77;59.42;;;;;;;-1.31;71.81;96149.98;1654941;84;21047;-50
2022/03/23 03:41:02;;;;;;;138.45;57.85;;;;;;;-1.32;72.02;96147.06;1661976;85;20944;-50
2022/03/23 03:43:30;;;;;;;160.78;69.55;;;;;;;-1.28;72.10;96147.95;1658195;84;21339;-50
2022/03/23 03:45:58;;;;;;;164.52;68.20;;;;;;;-1.24;72.10;96148.84;1656393;84;21064;-49
2022/03/23 03:48:26;;;;;;;172.80;75.25;;;;;;;-1.22;71.91;96145.23;1663327;85;21057;-50
2022/03/23 03:50:54;;;;;;;177.15;74.12;;;;;;;-1.21;71.50;96149.52;1660436;84;21088;-50
2022/03/23 03:53:22;;;;;;;184.28;74.72;;;;;;;-1.24;71.42;96143.45;1645031;86;21446;-50
2022/03/23 03:55:49;;;;;;;168.65;71.10;;;;;;;-1.17;71.73;96142.34;1669785;85;21126;-49
2022/03/23 03:58:17;;;;;;;150.45;65.97;;;;;;;-1.06;71.38;96139.38;1655784;85;21092;-52
2022/03/23 04:00:46;;;;;;;138.85;62.03;;;;;;;-1.07;70.82;96140.52;1667151;85;21119;-49
2022/03/23 04:03:14;;;;;;;118.08;56.75;;;;;;;-1.16;70.81;96145.26;1661006;85;21026;-49
2022/03/23 04:05:43;;;;;;;127.90;57.53;;;;;;;-1.27;70.88;96146.83;1672898;84;20969;-50
2022/03/23 04:08:10;;;;;;;140.10;60.83;;;;;;;-1.35;71.00;96145.04;1663105;85;21219;-50
2022/03/23 04:10:39;;;;;;;129.72;61.02;;;;;;;-1.46;71.12;96146.59;1655181;85;20966;-50
2022/03/23 04:13:07;;;;;;;115.45;54.58;;;;;;;-1.54;71.32;96142.11;1652711;85;21644;-55
2022/03/23 04:15:36;;;;;;;114.82;55.20;;;;;;;-1.64;71.47;96145.23;1636636;85;21105;-50
2022/03/23 04:18:05;;;;;;;124.07;60.70;;;;;;;-1.74;71.72;96142.95;1648337;85;21064;-49
2022/03/23 04:20:35;;;;;;;164.20;69.87;;;;;;;-1.78;72.04;96144.75;1658092;84;21095;-49
2022/03/23 04:23:03;;;;;;;164.22;72.97;;;;;;;-1.80;72.29;96137.56;1669277;85;21000;-50
2022/03/23 04:25:30;;;;;;;176.53;79.50;;;;;;;-1.72;72.52;96144.79;1660230;85;20994;-50
2022/03/23 04:27:58;;;;;;;121.92;61.75;;;;;;;-1.57;72.72;96141.41;1652568;84;21215;-51
2022/03/23 04:30:32;;;;;;;136.50;62.53;;;;;;;-1.47;72.01;96143.09;1644269;84;21060;-50
2022/03/23 04:32:59;;;;;;;145.62;67.05;;;;;;;-1.46;71.96;96138.50;1650047;84;21189;-49
2022/03/23 04:35:28;;;;;;;135.75;60.92;;;;;;;-1.45;71.72;96131.98;1654088;85;21012;-50
2022/03/23 04:37:55;;;;;;;131.85;65.87;;;;;;;-1.49;71.62;96134.55;1647394;84;21044;-49
2022/03/23 04:40:22;;;;;;;148.45;70.40;;;;;;;-1.51;71.73;96138.73;1663762;86;21115;-50
2022/03/23 04:42:52;;;;;;;142.82;65.22;;;;;;;-1.47;71.86;96133.66;1661796;85;21623;-49
2022/03/23 04:45:19;;;;;;;123.90;62.43;;;;;;;-1.38;71.70;96136.24;1655265;85;21255;-50
2022/03/23 04:47:47;;;;;;;168.45;74.42;;;;;;;-1.30;71.64;96131.31;1661095;84;21068;-50
2022/03/23 04:50:14;;;;;;;163.50;70.52;;;;;;;-1.29;71.10;96121.51;1646726;85;21041;-49
2022/03/23 04:52:42;;;;;;;148.28;69.80;;;;;;;-1.24;71.31;96125.90;1649192;84;21546;-49
2022/03/23 04:55:11;;;;;;;125.42;60.73;;;;;;;-1.18;70.97;96124.56;1655807;85;21073;-50
2022/03/23 04:57:39;;;;;;;115.20;56.83;;;;;;;-1.16;70.62;96128.48;1662853;85;21916;-52
2022/03/23 05:00:10;;;;;;;129.80;62.85;;;;;;;-1.21;70.74;96126.57;1655870;84;21014;-49
2022/03/23 05:02:40;;;;;;;138.28;66.35;;;;;;;-1.31;70.61;96129.16;1653024;84;21002;-50
2022/03/23 05:05:09;;;;;;;125.10;61.10;;;;;;;-1.37;70.83;96129.17;1648371;85;21010;-50
2022/03/23 05:07:37;;;;;;;123.78;58.92;;;;;;;-1.37;71.08;96133.77;1658210;85;21013;-49
2022/03/23 05:10:08;;;;;;;130.32;63.10;;;;;;;-1.36;71.08;96134.02;1650387;85;21270;-51
2022/03/23 05:12:37;;;;;;;129.50;60.10;;;;;;;-1.39;71.21;96131.97;1668728;85;21004;-51
2022/03/23 05:15:06;;;;;;;128.75;62.45;;;;;;;-1.38;71.42;96136.24;1648574;85;21549;-50
2022/03/23 05:17:36;;;;;;;143.65;72.85;;;;;;;-1.37;71.58;96135.92;1669505;85;21095;-51
2022/03/23 05:20:06;;;;;;;154.15;76.07;;;;;;;-1.28;72.17;96133.11;1667253;85;21548;-52
2022/03/23 05:22:37;;;;;;;144.28;71.47;;;;;;;-1.05;72.65;96133.66;1647807;85;21550;-50
2022/03/23 05:25:06;;;;;;;138.77;64.95;;;;;;;-0.86;71.71;96137.10;1660427;85;21036;-53
2022/03/23 05:27:38;;;;;;;120.53;65.15;;;;;;;-0.82;71.41;96131.23;1649335;85;21162;-52
2022/03/23 05:30:08;;;;;;;172.13;87.90;;;;;;;-0.73;71.43;96132.70;1661674;85;21096;-51
2022/03/23 05:32:36;;;;;;;187.97;93.62;;;;;;;-0.66;71.20;96137.50;1654788;85;21532;-51
2022/03/23 05:35:05;;;;;;;166.40;83.80;;;;;;;-0.63;71.24;96134.14;1645169;85;21281;-51
2022/03/23 05:37:33;;;;;;;164.82;83.58;;;;;;;-0.61;71.26;96126.48;1626807;85;20981;-51
2022/03/23 05:40:06;;;;;;;157.32;78.60;;;;;;;-0.59;71.38;96128.27;1657158;85;21068;-56
2022/03/23 05:42:34;;;;;;;162.05;79.40;;;;;;;-0.56;71.56;96125.65;1668271;85;21507;-52
2022/03/23 05:45:01;;;;;;;154.07;74.87;;;;;;;-0.51;71.59;96125.98;1650718;85;21473;-52
2022/03/23 05:47:29;;;;;;;153.78;74.50;;;;;;;-0.44;71.73;96118.86;1664545;84;21231;-53
2022/03/23 05:49:57;;;;;;;131.40;66.20;;;;;;;-0.38;71.68;96116.70;1641679;85;21560;-53
2022/03/23 05:52:26;;;;;;;142.70;67.92;;;;;;;-0.32;71.76;96120.72;1651190;85;21112;-52
2022/03/23 05:54:54;;;;;;;141.90;69.17;;;;;;;-0.25;71.78;96116.89;1665014;84;21198;-53
2022/03/23 05:57:22;;;;;;;137.07;71.30;;;;;;;-0.15;72.00;96109.61;1646885;85;21127;-52
2022/03/23 05:59:49;;;;;;;124.82;63.60;;;;;;;0.01;71.95;96113.36;1654989;85;21193;-57
2022/03/23 06:02:17;;;;;;;126.45;66.62;;;;;;;0.16;71.75;96107.18;1665246;85;21076;-58
2022/03/23 06:04:44;;;;;;;128.15;67.03;;;;;;;0.25;71.63;96113.20;1671325;85;21093;-50
2022/03/23 06:07:13;;;;;;;121.02;62.25;;;;;;;0.38;71.77;96102.52;1644699;85;21070;-51
2022/03/23 06:09:40;;;;;;;114.70;62.88;;;;;;;0.54;71.52;96112.78;1653864;85;21146;-51
2022/03/23 06:12:12;;;;;;;113.72;65.57;;;;;;;0.72;71.34;96109.13;1652230;85;21101;-49
2022/03/23 06:14:43;;;;;;;100.58;57.78;;;;;;;0.84;71.15;96108.48;1643431;85;21648;-50
2022/03/23 06:17:12;;;;;;;90.45;51.33;;;;;;;0.95;71.06;96102.72;1639881;86;21703;-49
2022/03/23 06:19:40;;;;;;;85.90;50.38;;;;;;;1.15;70.77;96108.39;1622349;87;21148;-50
2022/03/23 06:22:09;;;;;;;102.10;53.40;;;;;;;1.29;70.61;96100.58;1658940;85;20974;-49
2022/03/23 06:24:37;;;;;;;96.95;49.38;;;;;;;1.46;70.16;96100.17;1634421;86;22154;-51
2022/03/23 06:27:06;;;;;;;75.87;40.73;;;;;;;1.56;69.78;96102.88;1641062;86;21070;-50
2022/03/23 06:29:34;;;;;;;69.85;37.67;;;;;;;1.65;69.44;96104.23;1652935;85;21269;-50
2022/03/23 06:32:01;;;;;;;68.80;38.55;;;;;;;1.76;69.17;96099.23;1640249;85;21467;-50
2022/03/23 06:34:29;;;;;;;65.85;35.00;;;;;;;1.87;68.91;96092.66;1650988;85;21083;-50
2022/03/23 06:36:56;;;;;;;68.62;38.90;;;;;;;2.00;68.67;96096.20;1658180;85;21796;-50
2022/03/23 06:39:24;;;;;;;69.58;37.30;;;;;;;2.08;68.10;96089.78;1667236;84;21016;-51
2022/03/23 06:41:51;;;;;;;86.85;43.08;;;;;;;2.20;68.03;96088.82;1656608;85;20971;-49
2022/03/23 06:44:19;;;;;;;74.70;40.38;;;;;;;2.37;67.54;96089.70;1652861;84;21128;-50
2022/03/23 06:46:48;;;;;;;89.87;45.33;;;;;;;2.46;67.19;96088.88;1656741;84;21198;-51
2022/03/23 06:49:16;;;;;;;77.92;39.00;;;;;;;2.55;66.97;96083.44;1643382;85;22215;-52
2022/03/23 06:51:44;;;;;;;80.38;41.98;;;;;;;2.73;66.66;96085.06;1653919;84;21527;-53
2022/03/23 06:54:12;;;;;;;91.32;40.70;;;;;;;2.86;66.24;96081.02;1646980;84;21083;-53
2022/03/23 06:56:39;;;;;;;85.53;43.92;;;;;;;3.02;65.82;96083.00;1645829;84;21542;-51
2022/03/23 06:59:07;;;;;;;91.63;43.60;;;;;;;3.18;65.43;96084.95;1646727;85;21109;-53
2022/03/23 07:01:34;;;;;;;63.23;35.03;;;;;;;3.31;64.96;96087.67;1643696;84;21777;-56
2022/03/23 07:04:02;;;;;;;68.55;32.78;;;;;;;3.45;64.46;96071.55;1653958;85;21099;-54
2022/03/23 07:06:30;;;;;;;75.35;41.28;;;;;;;3.59;63.95;96080.66;1659190;84;21113;-50
2022/03/23 07:11:45;;;;;;;63.45;33.40;;;;;;;3.89;63.58;96061.78;1646537;84;21589;-51
2022/03/23 07:14:13;;;;;;;60.70;33.88;;;;;;;4.11;62.86;96069.04;1633343;84;21166;-51
2022/03/23 07:16:42;;;;;;;56.13;30.80;;;;;;;4.33;62.43;96057.75;1642508;84;21420;-53
2022/03/23 07:19:13;;;;;;;52.08;28.95;;;;;;;4.59;61.75;96065.80;1642147;85;21114;-52
2022/03/23 07:21:42;;;;;;;52.62;26.52;;;;;;;4.70;61.00;96059.27;1645591;84;21129;-53
2022/03/23 07:24:11;;;;;;;50.60;25.48;;;;;;;4.81;60.59;96058.75;1633933;84;21101;-52
2022/03/23 07:26:39;;;;;;;58.17;26.48;;;;;;;4.98;59.98;96049.92;1646772;84;21425;-58
2022/03/23 07:29:07;;;;;;;38.35;22.17;;;;;;;5.13;59.71;96049.45;1662303;84;21121;-51
2022/03/23 07:31:35;;;;;;;45.25;22.02;;;;;;;5.32;58.93;96048.57;1644614;85;21083;-56
2022/03/23 07:34:05;;;;;;;43.98;22.15;;;;;;;5.45;58.46;96045.72;1651257;84;21177;-52
2022/03/23 07:36:33;;;;;;;37.03;21.27;;;;;;;5.55;57.99;96036.22;1657448;83;21116;-52
2022/03/23 07:39:00;;;;;;;54.58;22.75;;;;;;;5.67;57.62;96037.26;1650676;83;21441;-53
2022/03/23 07:41:28;;;;;;;66.17;28.05;;;;;;;5.79;57.42;96034.19;1636341;85;21982;-51
2022/03/23 07:44:00;;;;;;;35.78;17.75;;;;;;;5.97;56.73;96034.27;1631681;85;21034;-53
2022/03/23 07:46:29;;;;;;;28.57;15.78;;;;;;;6.23;55.94;96033.92;1627323;84;21066;-51
2022/03/23 07:48:56;;;;;;;69.97;21.15;;;;;;;6.43;54.50;96026.92;1653299;84;21056;-52
2022/03/23 07:51:24;;;;;;;33.40;15.08;;;;;;;6.57;54.14;96024.20;1639732;84;21097;-51
2022/03/23 07:53:53;;;;;;;43.52;20.25;;;;;;;6.72;53.41;96023.03;1663781;84;21060;-54
2022/03/23 07:56:23;;;;;;;40.80;20.32;;;;;;;6.87;53.13;96015.79;1660196;84;21673;-53
2022/03/23 07:58:51;;;;;;;36.55;19.75;;;;;;;7.03;52.97;96014.03;1659355;84;21097;-51
2022/03/23 08:01:18;;;;;;;44.58;21.75;;;;;;;7.20;52.47;96009.30;1648206;85;21006;-52
2022/03/23 08:03:45;;;;;;;38.83;17.90;;;;;;;7.38;51.58;96008.64;1653017;84;21176;-53
2022/03/23 08:06:12;;;;;;;30.88;17.45;;;;;;;7.53;50.99;95999.20;1656125;85;21147;-53
2022/03/23 08:08:40;;;;;;;35.15;20.40;;;;;;;7.70;50.35;95997.59;1642508;84;21155;-53
2022/03/23 08:11:08;;;;;;;37.50;22.10;;;;;;;7.87;50.21;95996.12;1661464;84;21081;-52
2022/03/23 08:13:37;;;;;;;46.37;26.42;;;;;;;8.07;50.10;95993.69;1646193;84;21643;-54
2022/03/23 08:16:07;;;;;;;54.65;27.75;;;;;;;8.27;49.50;95990.65;1644448;84;21311;-52
2022/03/23 08:18:37;;;;;;;44.10;24.87;;;;;;;8.43;49.04;95982.70;1642016;84;21571;-54
2022/03/23 08:21:05;;;;;;;41.68;25.65;;;;;;;8.59;48.70;95986.48;1657573;84;21862;-52
2022/03/23 08:23:34;;;;;;;52.23;23.52;;;;;;;8.75;47.98;95979.09;1642518;84;22401;-52
2022/03/23 08:26:08;;;;;;;32.48;21.45;;;;;;;8.89;47.54;95970.16;1646056;84;21061;-51
2022/03/23 08:28:34;;;;;;;53.10;21.65;;;;;;;9.05;47.06;95972.55;1646834;84;21162;-52
2022/03/23 08:31:01;;;;;;;46.65;19.65;;;;;;;9.25;46.71;95971.38;1638595;83;21220;-55
2022/03/23 08:33:32;;;;;;;50.30;20.43;;;;;;;9.49;46.12;95968.94;1652944;84;20993;-53
2022/03/23 08:35:59;;;;;;;122.30;24.95;;;;;;;9.69;45.45;95963.00;1651997;84;21066;-53
2022/03/23 08:38:27;;;;;;;48.17;20.35;;;;;;;9.92;45.37;95967.20;1656801;84;21170;-55
2022/03/23 08:40:54;;;;;;;46.48;19.75;;;;;;;10.14;45.70;95954.77;1645875;84;21141;-53
2022/03/23 08:43:21;;;;;;;38.17;20.97;;;;;;;10.35;45.05;95948.95;1656220;84;21523;-52
2022/03/23 08:45:48;;;;;;;54.03;27.17;;;;;;;10.59;44.98;95956.03;1657365;84;20994;-58
2022/03/23 08:48:21;;;;;;;49.60;26.40;;;;;;;10.76;43.64;95948.27;1649374;84;21359;-55
2022/03/23 08:50:49;;;;;;;71.02;30.72;;;;;;;10.90;43.52;95944.48;1640364;85;21132;-52
2022/03/23 08:53:18;;;;;;;39.42;19.35;;;;;;;11.07;43.25;95937.30;1648028;85;21127;-51
2022/03/23 08:55:46;;;;;;;40.43;18.25;;;;;;;11.27;42.31;95936.73;1655256;84;21078;-54
2022/03/23 08:58:13;;;;;;;34.48;17.15;;;;;;;11.46;42.27;95931.03;1663658;84;21004;-53
2022/03/23 09:00:41;;;;;;;29.10;16.75;;;;;;;11.60;41.44;95927.45;1642792;84;21017;-52
2022/03/23 09:03:10;;;;;;;29.95;15.03;;;;;;;11.69;41.16;95924.88;1644645;85;21041;-55
2022/03/23 09:05:37;;;;;;;39.60;16.75;;;;;;;11.81;41.09;95920.11;1652777;84;21165;-54
2022/03/23 09:08:08;;;;;;;36.68;16.30;;;;;;;11.90;40.70;95914.78;1650003;84;21099;-54
2022/03/23 09:10:36;;;;;;;34.73;17.50;;;;;;;11.99;40.34;95914.98;1638195;85;21075;-55
2022/03/23 09:13:05;;;;;;;28.83;15.75;;;;;;;12.07;40.08;95912.23;1644304;84;21541;-54
2022/03/23 09:15:37;;;;;;;45.40;20.95;;;;;;;12.22;39.93;95907.95;1655866;84;21093;-53
2022/03/23 09:18:06;;;;;;;28.42;17.17;;;;;;;12.37;39.78;95900.91;1654190;84;21176;-53
2022/03/23 09:20:37;;;;;;;30.60;17.85;;;;;;;12.56;39.20;95907.70;1644352;84;21025;-53
2022/03/23 09:23:09;;;;;;;31.65;17.73;;;;;;;12.76;39.33;95899.34;1644052;84;21113;-56
2022/03/23 09:25:37;;;;;;;40.92;18.12;;;;;;;12.95;38.43;95888.81;1655627;84;21122;-54
2022/03/23 09:28:06;;;;;;;32.55;16.35;;;;;;;13.12;37.91;95886.95;1669820;84;21574;-54
2022/03/23 09:30:34;;;;;;;27.62;13.35;;;;;;;13.39;37.55;95879.11;1667225;84;21171;-53
2022/03/23 09:33:01;;;;;;;25.50;12.30;;;;;;;13.69;35.91;95877.86;1665332;84;21514;-52
2022/03/23 09:35:29;;;;;;;20.97;9.55;;;;;;;13.98;34.30;95878.58;1653957;84;21680;-53
2022/03/23 09:37:59;;;;;;;28.10;12.65;;;;;;;14.27;33.34;95875.91;1648929;84;21582;-53
2022/03/23 09:40:31;;;;;;;44.95;11.80;;;;;;;14.55;33.49;95865.28;1652037;84;21465;-55
2022/03/23 09:43:00;;;;;;;32.35;10.88;;;;;;;14.81;33.09;95870.34;1657051;84;21123;-54
2022/03/23 09:45:38;;;;;;;23.25;10.55;;;;;;;15.07;32.63;95869.06;1648409;84;20987;-53
2022/03/23 09:47:57;;;;;;;16.35;8.55;;;;;;;15.37;32.02;95862.09;1649482;84;21017;-53
2022/03/23 09:50:30;;;;;;;14.55;7.97;;;;;;;15.71;32.17;95868.33;1650343;84;21073;-55
2022/03/23 09:52:59;;;;;;;91.08;14.38;;;;;;;16.12;31.90;95854.05;1654630;84;21068;-53
2022/03/23 09:55:27;;;;;;;15.63;8.08;;;;;;;16.55;30.81;95851.18;1659986;84;21253;-55
2022/03/23 09:57:59;;;;;;;12.43;8.05;;;;;;;17.01;29.34;95848.63;1650065;84;21178;-51
2022/03/23 10:00:29;;;;;;;11.95;7.15;;;;;;;17.42;28.27;95842.52;1660048;84;21065;-52
2022/03/23 10:03:17;;;;;;;13.20;7.58;;;;;;;17.85;27.65;95840.11;1649515;84;21214;-54
2022/03/23 10:06:14;;;;;;;14.53;7.50;;;;;;;18.28;26.51;95830.72;1648949;84;20993;-54
2022/03/23 10:09:14;;;;;;;25.77;7.50;;;;;;;18.72;26.47;95824.78;1622306;86;21457;-59
2022/03/23 10:12:38;;;;;;;39.85;9.15;;;;;;;19.27;25.36;95827.98;1589790;87;21474;-60
2022/03/23 10:15:44;;;;;;;11.57;6.90;;;;;;;19.73;25.11;95815.17;1654221;83;21108;-56
2022/03/23 10:18:38;;;;;;;15.40;6.67;;;;;;;20.07;23.88;95823.67;1619877;84;21083;-55
2022/03/23 10:21:10;;;;;;;9.60;6.37;;;;;;;20.50;23.34;95810.24;1643309;84;21030;-53
2022/03/23 10:23:37;;;;;;;13.90;5.87;;;;;;;21.02;22.75;95793.84;1657789;84;21435;-55
2022/03/23 10:26:14;;;;;;;13.83;6.12;;;;;;;21.52;21.64;95798.00;1654397;84;21485;-53
2022/03/23 10:28:43;;;;;;;15.83;7.05;;;;;;;21.83;21.28;95791.86;1652231;85;21572;-55
2022/03/23 10:31:17;;;;;;;11.65;6.53;;;;;;;22.24;22.20;95791.21;1632078;85;21101;-54
2022/03/23 10:34:07;;;;;;;9.75;5.40;;;;;;;22.77;20.84;95789.17;1641731;85;21066;-53
2022/03/23 10:36:33;;;;;;;17.98;8.63;;;;;;;23.17;20.10;95781.25;1611165;86;22602;-54
2022/03/23 10:39:04;;;;;;;17.10;7.00;;;;;;;23.60;19.65;95784.07;1651431;84;21044;-53
2022/03/23 10:41:31;;;;;;;11.97;6.95;;;;;;;24.00;19.59;95778.06;1628661;85;21147;-54
2022/03/23 10:43:59;;;;;;;11.55;6.40;;;;;;;24.40;18.88;95777.55;1659470;84;21038;-56
2022/03/23 10:46:27;;;;;;;12.13;6.37;;;;;;;24.59;18.47;95765.27;1646967;85;21146;-55
2022/03/23 10:49:02;;;;;;;13.10;5.28;;;;;;;24.80;17.77;95758.08;1652969;84;21252;-57
2022/03/23 10:51:34;;;;;;;9.08;5.47;;;;;;;24.90;17.49;95755.75;1661105;84;21105;-55
2022/03/23 10:54:23;;;;;;;25.23;6.87;;;;;;;24.84;17.39;95742.31;1655267;85;21089;-55
2022/03/23 10:56:50;;;;;;;38.00;6.78;;;;;;;24.73;17.70;95739.54;1666572;85;20998;-54
2022/03/23 10:59:28;;;;;;;10.20;5.35;;;;;;;25.11;18.58;95731.61;1670133;84;21122;-54
2022/03/23 11:02:10;;;;;;;9.45;4.58;;;;;;;25.56;17.72;95731.52;1643928;85;21126;-57
2022/03/23 11:04:47;;;;;;;16.30;6.10;;;;;;;25.81;16.29;95724.05;1643657;84;21078;-56
2022/03/23 11:07:25;;;;;;;19.07;7.22;;;;;;;25.76;16.65;95719.86;1652689;84;21067;-55
2022/03/23 11:18:18;;;;;;;10.78;5.08;;;;;;;26.88;16.00;95705.14;1661907;84;21642;-55
2022/03/23 11:20:56;;;;;;;10.85;4.80;;;;;;;27.13;15.26;95701.04;1652033;85;21111;-54
2022/03/23 11:23:33;;;;;;;15.68;8.83;;;;;;;27.23;15.05;95697.94;1660334;84;21105;-54
2022/03/23 11:26:03;;;;;;;9.60;5.05;;;;;;;27.30;15.20;95695.94;1603120;85;21041;-54
2022/03/23 11:28:35;;;;;;;8.33;5.22;;;;;;;27.56;16.34;95690.42;1654722;85;21145;-54
2022/03/23 11:31:08;;;;;;;14.10;6.40;;;;;;;27.83;14.98;95684.27;1646580;84;20978;-58
2022/03/23 11:33:37;;;;;;;14.73;5.45;;;;;;;28.11;15.18;95681.88;1628241;85;21065;-55
2022/03/23 11:36:09;;;;;;;16.48;6.78;;;;;;;28.49;15.38;95677.63;1661812;84;21732;-54
2022/03/23 11:38:37;;;;;;;17.42;5.95;;;;;;;28.71;14.70;95679.27;1655974;85;20989;-54
2022/03/23 11:41:05;;;;;;;9.00;5.62;;;;;;;28.82;15.09;95673.41;1651704;84;21146;-54
2022/03/23 11:43:34;;;;;;;11.78;5.12;;;;;;;28.90;14.51;95664.37;1655383;84;21539;-54
2022/03/23 11:46:01;;;;;;;9.55;6.05;;;;;;;28.91;14.43;95660.26;1654525;85;21082;-56
2022/03/23 11:49:14;;;;;;;11.90;5.37;;;;;;;28.83;13.61;95666.42;1670927;84;21007;-55